Atsuta Maru No.8 — JG5494 — position and weather

sailwx.info

Track history (hours):
 
Tides and Currents Weather Stations Pressure Air Temp Water Temp Dewpoint Dewpoint Depression Visibility Wind Speed Wind Dir Waves Ship Positions

Atsuta Maru No.8

Last reported at 2018-Feb-25 13:18 UTC. Time now 2018-Feb-25 13:38 UTC.
Position N 34°31' E 138°23'.

Length 69 m; draft 4.7 m.

Type: Tanker. MMSI: 431100297.

Date/timePositionNaut miles runAvg speedWind from/ knotsBaromVisibWave heightAir tempDewpointWater temp
2018-Feb-25 13:18N 34°31' E 138°23'612.1
2018-Feb-25 12:46N 34°31' E 138°15'4712.7
2018-Feb-25 09:02N 34°32' E 137°17'512.4
2018-Feb-25 08:39N 34°32' E 137°12'512.5
2018-Feb-25 08:15N 34°32' E 137°06'1312.3
2018-Feb-25 07:13N 34°38' E 136°52'312.2
2018-Feb-25 07:00N 34°40' E 136°50'612.4
2018-Feb-25 06:30N 34°46' E 136°47'612.0
2018-Feb-25 06:00N 34°51' E 136°44'612.0
2018-Feb-25 05:31N 34°57' E 136°42'3 5.2
2018-Feb-25 05:00N 34°58' E 136°39'0 0.0
2018-Feb-24 23:06N 34°58' E 136°39'0 0.1
2018-Feb-24 23:00N 34°58' E 136°39'0 1.0
2018-Feb-24 22:30N 34°57' E 136°38'0 0.0
2018-Feb-24 21:08N 34°57' E 136°38'0 0.0
2018-Feb-24 07:14N 34°57' E 136°38'0 0.0
2018-Feb-23 23:02N 34°57' E 136°38'0 0.0
2018-Feb-23 19:14N 34°57' E 136°38'0 0.0
2018-Feb-23 18:56N 34°57' E 136°38'0 0.0
2018-Feb-23 18:20N 34°57' E 136°38'0 0.0
2018-Feb-23 17:56N 34°57' E 136°38'0 0.0
2018-Feb-23 17:14N 34°57' E 136°38'0 0.0
2018-Feb-23 16:56N 34°57' E 136°38'0 0.0
2018-Feb-23 16:26N 34°57' E 136°38'0 0.0
2018-Feb-23 15:50N 34°57' E 136°38'0 0.0
2018-Feb-23 15:26N 34°57' E 136°38'0 0.0
2018-Feb-23 14:56N 34°57' E 136°38'0 0.0
2018-Feb-23 14:26N 34°57' E 136°38'0 0.0
2018-Feb-23 13:56N 34°57' E 136°38'0 0.0
2018-Feb-23 13:26N 34°57' E 136°38'0 0.0
2018-Feb-23 12:56N 34°57' E 136°38'0 0.0
2018-Feb-23 11:38N 34°57' E 136°38'0 0.0
2018-Feb-23 11:26N 34°57' E 136°38'0 0.0
2018-Feb-23 10:50N 34°57' E 136°38'0 0.0
2018-Feb-23 10:26N 34°57' E 136°38'0 0.0
2018-Feb-23 09:08N 34°57' E 136°38'0 0.0
2018-Feb-23 08:50N 34°57' E 136°38'0 0.0
2018-Feb-23 08:20N 34°57' E 136°38'0 0.0
2018-Feb-23 06:20N 34°57' E 136°38'0 0.0
2018-Feb-23 04:00N 34°57' E 136°38'2 4.2
2018-Feb-23 03:29N 34°57' E 136°41'0 0.3
2018-Feb-23 02:58N 34°57' E 136°41'2 4.5
2018-Feb-23 02:30N 34°55' E 136°42'612.6
2018-Feb-23 02:00N 34°49' E 136°45'612.5
2018-Feb-23 01:30N 34°44' E 136°49'103 8.1
2018-Feb-22 12:43N 33°51' E 135°02'312.0
2018-Feb-22 12:31N 33°54' E 135°00'612.9
2018-Feb-22 12:01N 33°60' E 134°60'713.1
2018-Feb-22 11:30N 34°07' E 134°59'713.3
2018-Feb-22 11:01N 34°13' E 134°59'714.0
2018-Feb-22 10:31N 34°20' E 134°59'713.2
2018-Feb-22 10:01N 34°25' E 135°05'713.2
2018-Feb-22 09:30N 34°29' E 135°11'612.8
2018-Feb-22 09:00N 34°33' E 135°17'612.3
2018-Feb-22 08:30N 34°36' E 135°23'3 5.6
2018-Feb-22 08:00N 34°34' E 135°26'0 0.0
2018-Feb-22 07:30N 34°34' E 135°26'0 0.0
2018-Feb-22 07:00N 34°34' E 135°26'0 0.0
2018-Feb-22 06:30N 34°34' E 135°26'0 0.0
2018-Feb-22 06:00N 34°34' E 135°26'0 0.0
2018-Feb-22 05:30N 34°34' E 135°26'0 0.0
2018-Feb-22 05:00N 34°34' E 135°26'0 0.0
2018-Feb-22 04:27N 34°34' E 135°26'0 0.0
2018-Feb-22 04:00N 34°34' E 135°26'0 0.0
2018-Feb-22 03:30N 34°34' E 135°26'0 0.0
2018-Feb-22 02:57N 34°34' E 135°26'0 0.0
2018-Feb-22 02:30N 34°34' E 135°26'0 0.0
2018-Feb-22 02:00N 34°34' E 135°26'0 0.0
2018-Feb-22 01:30N 34°34' E 135°26'0 0.2
2018-Feb-22 01:00N 34°34' E 135°26'3 6.6
2018-Feb-22 00:30N 34°36' E 135°22'5 9.4
2018-Feb-22 00:00N 34°33' E 135°18'611.7
2018-Feb-21 23:30N 34°29' E 135°13'611.7
2018-Feb-21 23:00N 34°25' E 135°08'611.4
2018-Feb-21 22:30N 34°21' E 135°03'510.7
2018-Feb-21 22:00N 34°17' E 134°59'510.5
2018-Feb-21 21:30N 34°11' E 134°60'611.4
2018-Feb-21 21:00N 34°06' E 135°00'611.2
2018-Feb-21 20:30N 34°00' E 135°01'611.2
2018-Feb-21 20:00N 33°55' E 135°01'103 7.9
2018-Feb-21 07:05N 34°37' E 136°54'111.9
2018-Feb-21 07:00N 34°38' E 136°53'611.8
2018-Feb-21 06:30N 34°42' E 136°48'612.2
2018-Feb-21 06:00N 34°48' E 136°45'612.0
2018-Feb-21 05:30N 34°53' E 136°42'510.4
2018-Feb-21 05:00N 34°58' E 136°40'1 0.2
2018-Feb-20 23:09N 34°58' E 136°39'0 0.2
2018-Feb-20 23:01N 34°58' E 136°39'1 1.7
2018-Feb-20 22:30N 34°57' E 136°38'0 0.0
2018-Feb-20 21:56N 34°57' E 136°38'0 0.0
2018-Feb-20 21:26N 34°57' E 136°38'0 0.0
2018-Feb-20 20:56N 34°57' E 136°38'0 0.0
2018-Feb-20 20:26N 34°57' E 136°38'0 0.0
2018-Feb-20 19:56N 34°57' E 136°38'0 0.0
2018-Feb-20 19:26N 34°57' E 136°38'0 0.0
2018-Feb-20 18:56N 34°57' E 136°38'0 0.0
2018-Feb-20 18:26N 34°57' E 136°38'0 0.0
2018-Feb-20 17:56N 34°57' E 136°38'0 0.0
2018-Feb-20 17:26N 34°57' E 136°38'0 0.0
2018-Feb-20 16:56N 34°57' E 136°38'0 0.0
2018-Feb-20 16:26N 34°57' E 136°38'0 0.0
2018-Feb-20 15:50N 34°57' E 136°38'0 0.0
2018-Feb-20 15:26N 34°57' E 136°38'0 0.0
2018-Feb-20 14:56N 34°57' E 136°38'0 0.0
2018-Feb-20 14:26N 34°57' E 136°38'0 0.0
2018-Feb-20 13:56N 34°57' E 136°38'0 0.0
2018-Feb-20 13:26N 34°57' E 136°38'0 0.0
2018-Feb-20 12:56N 34°57' E 136°38'0 0.0
2018-Feb-20 12:26N 34°57' E 136°38'0 0.0
2018-Feb-20 11:50N 34°57' E 136°38'0 0.0
2018-Feb-20 11:26N 34°57' E 136°38'0 0.0
2018-Feb-20 10:56N 34°57' E 136°38'0 0.0
2018-Feb-20 10:26N 34°57' E 136°38'0 0.0
2018-Feb-20 09:56N 34°57' E 136°38'0 0.0
2018-Feb-20 09:26N 34°57' E 136°38'0 0.0
2018-Feb-20 08:56N 34°57' E 136°38'0 0.0
2018-Feb-20 08:26N 34°57' E 136°38'0 0.0
2018-Feb-20 07:56N 34°57' E 136°38'0 0.0
2018-Feb-20 07:26N 34°57' E 136°38'0 0.0
2018-Feb-20 06:50N 34°57' E 136°38'0 0.0
2018-Feb-20 06:26N 34°57' E 136°38'0 0.0
2018-Feb-20 05:56N 34°57' E 136°38'0 0.0
2018-Feb-20 05:26N 34°57' E 136°38'0 0.0
2018-Feb-20 04:56N 34°57' E 136°38'0 0.0
2018-Feb-20 04:26N 34°57' E 136°38'0 0.0
2018-Feb-20 03:56N 34°57' E 136°38'0 0.0
2018-Feb-20 03:26N 34°57' E 136°38'0 0.0
2018-Feb-20 02:56N 34°57' E 136°38'0 0.0
2018-Feb-20 02:26N 34°57' E 136°38'0 0.0
2018-Feb-20 01:56N 34°57' E 136°38'0 0.0
2018-Feb-20 01:20N 34°57' E 136°38'0 0.0
2018-Feb-20 00:56N 34°57' E 136°38'0 0.0
2018-Feb-20 00:09N 34°57' E 136°38'0 0.1
2018-Feb-20 00:00N 34°57' E 136°38'3 5.3
2018-Feb-19 23:31N 34°57' E 136°42'0 0.2
2018-Feb-19 22:58N 34°57' E 136°42'0 0.0
2018-Feb-19 22:28N 34°57' E 136°42'0 0.0
2018-Feb-19 21:58N 34°57' E 136°42'0 0.0
2018-Feb-19 21:30N 34°57' E 136°42'611.0
2018-Feb-19 21:00N 34°51' E 136°43'612.2
2018-Feb-19 20:30N 34°46' E 136°47'612.1
2018-Feb-19 19:59N 34°41' E 136°51'102 8.4
2018-Feb-19 07:47N 33°50' E 135°03'413.2
2018-Feb-19 07:30N 33°52' E 134°60'713.1
2018-Feb-19 07:00N 33°57' E 134°54'713.0
2018-Feb-19 06:30N 34°02' E 134°50'713.4
2018-Feb-19 06:00N 34°08' E 134°45'714.2
2018-Feb-19 05:31N 34°13' E 134°40'612.5
2018-Feb-19 05:00N 34°17' E 134°34'712.8
2018-Feb-19 04:30N 34°19' E 134°26'19 3.0
2018-Feb-18 22:17N 34°21' E 134°04'14 1.0
2018-Feb-18 08:24N 34°25' E 134°20'512.1
2018-Feb-18 08:00N 34°26' E 134°26'612.0
2018-Feb-18 07:30N 34°29' E 134°33'611.7
2018-Feb-18 07:00N 34°31' E 134°39'611.3
2018-Feb-18 06:31N 34°33' E 134°46'511.0
2018-Feb-18 06:00N 34°35' E 134°52'510.0
2018-Feb-18 05:30N 34°37' E 134°57'4 8.9
2018-Feb-18 05:00N 34°36' E 135°03'510.1
2018-Feb-18 04:30N 34°32' E 135°05'612.1
2018-Feb-18 04:00N 34°26' E 135°03'612.0
2018-Feb-18 03:31N 34°20' E 135°01'611.5
2018-Feb-18 03:01N 34°14' E 134°60'611.9
2018-Feb-18 02:30N 34°09' E 135°01'611.9
2018-Feb-18 02:00N 34°02' E 135°01'611.7
2018-Feb-18 01:30N 33°57' E 135°02'100 7.7
2018-Feb-17 12:33N 34°40' E 136°51'112.9
2018-Feb-17 12:27N 34°40' E 136°50'612.8
2018-Feb-17 11:59N 34°46' E 136°47'612.7
2018-Feb-17 11:30N 34°52' E 136°44'612.4
2018-Feb-17 11:00N 34°57' E 136°42'2 0.4
2018-Feb-17 05:44N 34°58' E 136°39'0 0.0
2018-Feb-17 05:20N 34°58' E 136°39'0 0.5
2018-Feb-17 05:00N 34°58' E 136°39'0 0.7
2018-Feb-17 04:23N 34°57' E 136°39'0 0.0
2018-Feb-17 02:59N 34°57' E 136°39'0 0.0
2018-Feb-17 02:29N 34°57' E 136°39'0 0.0
2018-Feb-17 00:17N 34°57' E 136°39'0 0.0
2018-Feb-16 23:53N 34°57' E 136°39'0 0.0
2018-Feb-16 23:17N 34°57' E 136°39'0 0.0
2018-Feb-16 22:59N 34°57' E 136°39'0 0.0
2018-Feb-16 22:05N 34°57' E 136°39'0 0.0
2018-Feb-16 21:59N 34°57' E 136°39'0 0.0
2018-Feb-16 21:29N 34°57' E 136°39'0 0.0
2018-Feb-16 20:59N 34°57' E 136°39'0 0.0
2018-Feb-16 20:23N 34°57' E 136°39'0 0.0
2018-Feb-16 19:53N 34°57' E 136°39'0 0.0
2018-Feb-16 19:29N 34°57' E 136°39'0 0.0
2018-Feb-16 18:59N 34°57' E 136°39'0 0.0
2018-Feb-16 18:23N 34°57' E 136°39'0 0.0
2018-Feb-16 17:59N 34°57' E 136°39'0 0.0
2018-Feb-16 17:29N 34°57' E 136°39'0 0.0
2018-Feb-16 15:17N 34°57' E 136°39'0 0.0
2018-Feb-16 14:59N 34°57' E 136°39'0 0.0
2018-Feb-16 14:29N 34°57' E 136°39'0 0.0
2018-Feb-16 13:59N 34°57' E 136°39'0 0.0
2018-Feb-16 13:29N 34°57' E 136°39'0 0.0
2018-Feb-16 12:59N 34°57' E 136°39'0 0.0
2018-Feb-16 12:29N 34°57' E 136°39'0 0.0
2018-Feb-16 11:11N 34°57' E 136°39'0 0.0
2018-Feb-16 10:59N 34°57' E 136°39'0 0.0
2018-Feb-16 10:29N 34°57' E 136°39'0 0.0
2018-Feb-16 09:59N 34°57' E 136°39'0 0.0
2018-Feb-16 09:23N 34°57' E 136°39'0 0.0
2018-Feb-16 08:59N 34°57' E 136°39'0 0.0
2018-Feb-16 07:29N 34°57' E 136°39'0 0.0
2018-Feb-16 06:59N 34°57' E 136°39'0 0.0
2018-Feb-16 06:23N 34°57' E 136°39'0 0.0
2018-Feb-16 05:47N 34°57' E 136°39'0 0.0
2018-Feb-16 05:29N 34°57' E 136°39'0 0.0
2018-Feb-16 04:53N 34°57' E 136°39'0 0.0
2018-Feb-16 04:05N 34°57' E 136°39'0 0.0
2018-Feb-16 03:59N 34°57' E 136°39'0 0.3
2018-Feb-16 03:30N 34°57' E 136°39'0 0.0
2018-Feb-16 01:21N 34°57' E 136°39'0 0.0
2018-Feb-16 00:33N 34°57' E 136°39'0 0.0
2018-Feb-16 00:21N 34°57' E 136°39'0 0.0
2018-Feb-15 23:51N 34°57' E 136°39'0 0.0
2018-Feb-15 23:09N 34°57' E 136°39'0 0.0
2018-Feb-15 23:00N 34°57' E 136°39'2 4.4
2018-Feb-15 22:30N 34°57' E 136°41'0 0.3
2018-Feb-15 22:00N 34°57' E 136°41'0 0.1
2018-Feb-15 21:30N 34°57' E 136°41'0 0.0
2018-Feb-15 21:00N 34°57' E 136°41'0 0.0
2018-Feb-15 20:30N 34°57' E 136°41'2 4.7
2018-Feb-15 20:00N 34°55' E 136°42'612.7
2018-Feb-15 19:30N 34°49' E 136°46'712.6
2018-Feb-15 18:59N 34°43' E 136°50'2012.0
2018-Feb-15 17:19N 34°33' E 137°10'412.6
2018-Feb-15 16:59N 34°33' E 137°15'  
Track history (hours):
 
Tides and Currents Weather Stations Pressure Air Temp Water Temp Dewpoint Dewpoint Depression Visibility Wind Speed Wind Dir Waves Ship Positions

Atsuta Maru No.8

Last reported at 2018-Feb-25 13:18 UTC. Time now 2018-Feb-25 13:38 UTC.
Position N 34°31' E 138°23'.

Length 69 m; draft 4.7 m.

Type: Tanker. MMSI: 431100297.

Date/timePositionNaut miles runAvg speedWind from/ knotsBaromVisibWave heightAir tempDewpointWater temp
2018-Feb-25 13:18N 34°31' E 138°23'612.1
2018-Feb-25 12:46N 34°31' E 138°15'4712.7
2018-Feb-25 09:02N 34°32' E 137°17'512.4
2018-Feb-25 08:39N 34°32' E 137°12'512.5
2018-Feb-25 08:15N 34°32' E 137°06'1312.3
2018-Feb-25 07:13N 34°38' E 136°52'312.2
2018-Feb-25 07:00N 34°40' E 136°50'612.4
2018-Feb-25 06:30N 34°46' E 136°47'612.0
2018-Feb-25 06:00N 34°51' E 136°44'612.0
2018-Feb-25 05:31N 34°57' E 136°42'3 5.2
2018-Feb-25 05:00N 34°58' E 136°39'0 0.0
2018-Feb-24 23:06N 34°58' E 136°39'0 0.1
2018-Feb-24 23:00N 34°58' E 136°39'0 1.0
2018-Feb-24 22:30N 34°57' E 136°38'0 0.0
2018-Feb-24 21:08N 34°57' E 136°38'0 0.0
2018-Feb-24 07:14N 34°57' E 136°38'0 0.0
2018-Feb-23 23:02N 34°57' E 136°38'0 0.0
2018-Feb-23 19:14N 34°57' E 136°38'0 0.0
2018-Feb-23 18:56N 34°57' E 136°38'0 0.0
2018-Feb-23 18:20N 34°57' E 136°38'0 0.0
2018-Feb-23 17:56N 34°57' E 136°38'0 0.0
2018-Feb-23 17:14N 34°57' E 136°38'0 0.0
2018-Feb-23 16:56N 34°57' E 136°38'0 0.0
2018-Feb-23 16:26N 34°57' E 136°38'0 0.0
2018-Feb-23 15:50N 34°57' E 136°38'0 0.0
2018-Feb-23 15:26N 34°57' E 136°38'0 0.0
2018-Feb-23 14:56N 34°57' E 136°38'0 0.0
2018-Feb-23 14:26N 34°57' E 136°38'0 0.0
2018-Feb-23 13:56N 34°57' E 136°38'0 0.0
2018-Feb-23 13:26N 34°57' E 136°38'0 0.0
2018-Feb-23 12:56N 34°57' E 136°38'0 0.0
2018-Feb-23 11:38N 34°57' E 136°38'0 0.0
2018-Feb-23 11:26N 34°57' E 136°38'0 0.0
2018-Feb-23 10:50N 34°57' E 136°38'0 0.0
2018-Feb-23 10:26N 34°57' E 136°38'0 0.0
2018-Feb-23 09:08N 34°57' E 136°38'0 0.0
2018-Feb-23 08:50N 34°57' E 136°38'0 0.0
2018-Feb-23 08:20N 34°57' E 136°38'0 0.0
2018-Feb-23 06:20N 34°57' E 136°38'0 0.0
2018-Feb-23 04:00N 34°57' E 136°38'2 4.2
2018-Feb-23 03:29N 34°57' E 136°41'0 0.3
2018-Feb-23 02:58N 34°57' E 136°41'2 4.5
2018-Feb-23 02:30N 34°55' E 136°42'612.6
2018-Feb-23 02:00N 34°49' E 136°45'612.5
2018-Feb-23 01:30N 34°44' E 136°49'103 8.1
2018-Feb-22 12:43N 33°51' E 135°02'312.0
2018-Feb-22 12:31N 33°54' E 135°00'612.9
2018-Feb-22 12:01N 33°60' E 134°60'713.1
2018-Feb-22 11:30N 34°07' E 134°59'713.3
2018-Feb-22 11:01N 34°13' E 134°59'714.0
2018-Feb-22 10:31N 34°20' E 134°59'713.2
2018-Feb-22 10:01N 34°25' E 135°05'713.2
2018-Feb-22 09:30N 34°29' E 135°11'612.8
2018-Feb-22 09:00N 34°33' E 135°17'612.3
2018-Feb-22 08:30N 34°36' E 135°23'3 5.6
2018-Feb-22 08:00N 34°34' E 135°26'0 0.0
2018-Feb-22 07:30N 34°34' E 135°26'0 0.0
2018-Feb-22 07:00N 34°34' E 135°26'0 0.0
2018-Feb-22 06:30N 34°34' E 135°26'0 0.0
2018-Feb-22 06:00N 34°34' E 135°26'0 0.0
2018-Feb-22 05:30N 34°34' E 135°26'0 0.0
2018-Feb-22 05:00N 34°34' E 135°26'0 0.0
2018-Feb-22 04:27N 34°34' E 135°26'0 0.0
2018-Feb-22 04:00N 34°34' E 135°26'0 0.0
2018-Feb-22 03:30N 34°34' E 135°26'0 0.0
2018-Feb-22 02:57N 34°34' E 135°26'0 0.0
2018-Feb-22 02:30N 34°34' E 135°26'0 0.0
2018-Feb-22 02:00N 34°34' E 135°26'0 0.0
2018-Feb-22 01:30N 34°34' E 135°26'0 0.2
2018-Feb-22 01:00N 34°34' E 135°26'3 6.6
2018-Feb-22 00:30N 34°36' E 135°22'5 9.4
2018-Feb-22 00:00N 34°33' E 135°18'611.7
2018-Feb-21 23:30N 34°29' E 135°13'611.7
2018-Feb-21 23:00N 34°25' E 135°08'611.4
2018-Feb-21 22:30N 34°21' E 135°03'510.7
2018-Feb-21 22:00N 34°17' E 134°59'510.5
2018-Feb-21 21:30N 34°11' E 134°60'611.4
2018-Feb-21 21:00N 34°06' E 135°00'611.2
2018-Feb-21 20:30N 34°00' E 135°01'611.2
2018-Feb-21 20:00N 33°55' E 135°01'103 7.9
2018-Feb-21 07:05N 34°37' E 136°54'111.9
2018-Feb-21 07:00N 34°38' E 136°53'611.8
2018-Feb-21 06:30N 34°42' E 136°48'612.2
2018-Feb-21 06:00N 34°48' E 136°45'612.0
2018-Feb-21 05:30N 34°53' E 136°42'510.4
2018-Feb-21 05:00N 34°58' E 136°40'1 0.2
2018-Feb-20 23:09N 34°58' E 136°39'0 0.2
2018-Feb-20 23:01N 34°58' E 136°39'1 1.7
2018-Feb-20 22:30N 34°57' E 136°38'0 0.0
2018-Feb-20 21:56N 34°57' E 136°38'0 0.0
2018-Feb-20 21:26N 34°57' E 136°38'0 0.0
2018-Feb-20 20:56N 34°57' E 136°38'0 0.0
2018-Feb-20 20:26N 34°57' E 136°38'0 0.0
2018-Feb-20 19:56N 34°57' E 136°38'0 0.0
2018-Feb-20 19:26N 34°57' E 136°38'0 0.0
2018-Feb-20 18:56N 34°57' E 136°38'0 0.0
2018-Feb-20 18:26N 34°57' E 136°38'0 0.0
2018-Feb-20 17:56N 34°57' E 136°38'0 0.0
2018-Feb-20 17:26N 34°57' E 136°38'0 0.0
2018-Feb-20 16:56N 34°57' E 136°38'0 0.0
2018-Feb-20 16:26N 34°57' E 136°38'0 0.0
2018-Feb-20 15:50N 34°57' E 136°38'0 0.0
2018-Feb-20 15:26N 34°57' E 136°38'0 0.0
2018-Feb-20 14:56N 34°57' E 136°38'0 0.0
2018-Feb-20 14:26N 34°57' E 136°38'0 0.0
2018-Feb-20 13:56N 34°57' E 136°38'0 0.0
2018-Feb-20 13:26N 34°57' E 136°38'0 0.0
2018-Feb-20 12:56N 34°57' E 136°38'0 0.0
2018-Feb-20 12:26N 34°57' E 136°38'0 0.0
2018-Feb-20 11:50N 34°57' E 136°38'0 0.0
2018-Feb-20 11:26N 34°57' E 136°38'0 0.0
2018-Feb-20 10:56N 34°57' E 136°38'0 0.0
2018-Feb-20 10:26N 34°57' E 136°38'0 0.0
2018-Feb-20 09:56N 34°57' E 136°38'0 0.0
2018-Feb-20 09:26N 34°57' E 136°38'0 0.0
2018-Feb-20 08:56N 34°57' E 136°38'0 0.0
2018-Feb-20 08:26N 34°57' E 136°38'0 0.0
2018-Feb-20 07:56N 34°57' E 136°38'0 0.0
2018-Feb-20 07:26N 34°57' E 136°38'0 0.0
2018-Feb-20 06:50N 34°57' E 136°38'0 0.0
2018-Feb-20 06:26N 34°57' E 136°38'0 0.0
2018-Feb-20 05:56N 34°57' E 136°38'0 0.0
2018-Feb-20 05:26N 34°57' E 136°38'0 0.0
2018-Feb-20 04:56N 34°57' E 136°38'0 0.0
2018-Feb-20 04:26N 34°57' E 136°38'0 0.0
2018-Feb-20 03:56N 34°57' E 136°38'0 0.0
2018-Feb-20 03:26N 34°57' E 136°38'0 0.0
2018-Feb-20 02:56N 34°57' E 136°38'0 0.0
2018-Feb-20 02:26N 34°57' E 136°38'0 0.0
2018-Feb-20 01:56N 34°57' E 136°38'0 0.0
2018-Feb-20 01:20N 34°57' E 136°38'0 0.0
2018-Feb-20 00:56N 34°57' E 136°38'0 0.0
2018-Feb-20 00:09N 34°57' E 136°38'0 0.1
2018-Feb-20 00:00N 34°57' E 136°38'3 5.3
2018-Feb-19 23:31N 34°57' E 136°42'0 0.2
2018-Feb-19 22:58N 34°57' E 136°42'0 0.0
2018-Feb-19 22:28N 34°57' E 136°42'0 0.0
2018-Feb-19 21:58N 34°57' E 136°42'0 0.0
2018-Feb-19 21:30N 34°57' E 136°42'611.0
2018-Feb-19 21:00N 34°51' E 136°43'612.2
2018-Feb-19 20:30N 34°46' E 136°47'612.1
2018-Feb-19 19:59N 34°41' E 136°51'102 8.4
2018-Feb-19 07:47N 33°50' E 135°03'413.2
2018-Feb-19 07:30N 33°52' E 134°60'713.1
2018-Feb-19 07:00N 33°57' E 134°54'713.0
2018-Feb-19 06:30N 34°02' E 134°50'713.4
2018-Feb-19 06:00N 34°08' E 134°45'714.2
2018-Feb-19 05:31N 34°13' E 134°40'612.5
2018-Feb-19 05:00N 34°17' E 134°34'712.8
2018-Feb-19 04:30N 34°19' E 134°26'19 3.0
2018-Feb-18 22:17N 34°21' E 134°04'14 1.0
2018-Feb-18 08:24N 34°25' E 134°20'512.1
2018-Feb-18 08:00N 34°26' E 134°26'612.0
2018-Feb-18 07:30N 34°29' E 134°33'611.7
2018-Feb-18 07:00N 34°31' E 134°39'611.3
2018-Feb-18 06:31N 34°33' E 134°46'511.0
2018-Feb-18 06:00N 34°35' E 134°52'510.0
2018-Feb-18 05:30N 34°37' E 134°57'4 8.9
2018-Feb-18 05:00N 34°36' E 135°03'510.1
2018-Feb-18 04:30N 34°32' E 135°05'612.1
2018-Feb-18 04:00N 34°26' E 135°03'612.0
2018-Feb-18 03:31N 34°20' E 135°01'611.5
2018-Feb-18 03:01N 34°14' E 134°60'611.9
2018-Feb-18 02:30N 34°09' E 135°01'611.9
2018-Feb-18 02:00N 34°02' E 135°01'611.7
2018-Feb-18 01:30N 33°57' E 135°02'100 7.7
2018-Feb-17 12:33N 34°40' E 136°51'112.9
2018-Feb-17 12:27N 34°40' E 136°50'612.8
2018-Feb-17 11:59N 34°46' E 136°47'612.7
2018-Feb-17 11:30N 34°52' E 136°44'612.4
2018-Feb-17 11:00N 34°57' E 136°42'2 0.4
2018-Feb-17 05:44N 34°58' E 136°39'0 0.0
2018-Feb-17 05:20N 34°58' E 136°39'0 0.5
2018-Feb-17 05:00N 34°58' E 136°39'0 0.7
2018-Feb-17 04:23N 34°57' E 136°39'0 0.0
2018-Feb-17 02:59N 34°57' E 136°39'0 0.0
2018-Feb-17 02:29N 34°57' E 136°39'0 0.0
2018-Feb-17 00:17N 34°57' E 136°39'0 0.0
2018-Feb-16 23:53N 34°57' E 136°39'0 0.0
2018-Feb-16 23:17N 34°57' E 136°39'0 0.0
2018-Feb-16 22:59N 34°57' E 136°39'0 0.0
2018-Feb-16 22:05N 34°57' E 136°39'0 0.0
2018-Feb-16 21:59N 34°57' E 136°39'0 0.0
2018-Feb-16 21:29N 34°57' E 136°39'0 0.0
2018-Feb-16 20:59N 34°57' E 136°39'0 0.0
2018-Feb-16 20:23N 34°57' E 136°39'0 0.0
2018-Feb-16 19:53N 34°57' E 136°39'0 0.0
2018-Feb-16 19:29N 34°57' E 136°39'0 0.0
2018-Feb-16 18:59N 34°57' E 136°39'0 0.0
2018-Feb-16 18:23N 34°57' E 136°39'0 0.0
2018-Feb-16 17:59N 34°57' E 136°39'0 0.0
2018-Feb-16 17:29N 34°57' E 136°39'0 0.0
2018-Feb-16 15:17N 34°57' E 136°39'0 0.0
2018-Feb-16 14:59N 34°57' E 136°39'0 0.0
2018-Feb-16 14:29N 34°57' E 136°39'0 0.0
2018-Feb-16 13:59N 34°57' E 136°39'0 0.0
2018-Feb-16 13:29N 34°57' E 136°39'0 0.0
2018-Feb-16 12:59N 34°57' E 136°39'0 0.0
2018-Feb-16 12:29N 34°57' E 136°39'0 0.0
2018-Feb-16 11:11N 34°57' E 136°39'0 0.0
2018-Feb-16 10:59N 34°57' E 136°39'0 0.0
2018-Feb-16 10:29N 34°57' E 136°39'0 0.0
2018-Feb-16 09:59N 34°57' E 136°39'0 0.0
2018-Feb-16 09:23N 34°57' E 136°39'0 0.0
2018-Feb-16 08:59N 34°57' E 136°39'0 0.0
2018-Feb-16 07:29N 34°57' E 136°39'0 0.0
2018-Feb-16 06:59N 34°57' E 136°39'0 0.0
2018-Feb-16 06:23N 34°57' E 136°39'0 0.0
2018-Feb-16 05:47N 34°57' E 136°39'0 0.0
2018-Feb-16 05:29N 34°57' E 136°39'0 0.0
2018-Feb-16 04:53N 34°57' E 136°39'0 0.0
2018-Feb-16 04:05N 34°57' E 136°39'0 0.0
2018-Feb-16 03:59N 34°57' E 136°39'0 0.3
2018-Feb-16 03:30N 34°57' E 136°39'0 0.0
2018-Feb-16 01:21N 34°57' E 136°39'0 0.0
2018-Feb-16 00:33N 34°57' E 136°39'0 0.0
2018-Feb-16 00:21N 34°57' E 136°39'0 0.0
2018-Feb-15 23:51N 34°57' E 136°39'0 0.0
2018-Feb-15 23:09N 34°57' E 136°39'0 0.0
2018-Feb-15 23:00N 34°57' E 136°39'2 4.4
2018-Feb-15 22:30N 34°57' E 136°41'0 0.3
2018-Feb-15 22:00N 34°57' E 136°41'0 0.1
2018-Feb-15 21:30N 34°57' E 136°41'0 0.0
2018-Feb-15 21:00N 34°57' E 136°41'0 0.0
2018-Feb-15 20:30N 34°57' E 136°41'2 4.7
2018-Feb-15 20:00N 34°55' E 136°42'612.7
2018-Feb-15 19:30N 34°49' E 136°46'712.6
2018-Feb-15 18:59N 34°43' E 136°50'2012.0
2018-Feb-15 17:19N 34°33' E 137°10'412.6
2018-Feb-15 16:59N 34°33' E 137°15'  

Dump ship's entire track history